sensor_id;sensor_type;location;lat;lon;timestamp;pressure;altitude;pressure_sealevel;temperature;humidity
8699;BME280;4386;51.236;6.742;2023-01-25T00:00:05;103252.94;;;4.67;66.88
8699;BME280;4386;51.236;6.742;2023-01-25T00:01:08;103245.94;;;4.66;66.84
8699;BME280;4386;51.236;6.742;2023-01-25T00:02:13;103243.28;;;4.68;66.80
8699;BME280;4386;51.236;6.742;2023-01-25T00:03:20;103244.19;;;4.65;66.86
8699;BME280;4386;51.236;6.742;2023-01-25T00:04:42;103246.81;;;4.65;67.06
8699;BME280;4386;51.236;6.742;2023-01-25T00:06:04;103240.69;;;4.66;67.01
8699;BME280;4386;51.236;6.742;2023-01-25T00:07:27;103234.56;;;4.67;67.02
8699;BME280;4386;51.236;6.742;2023-01-25T00:08:50;103233.66;;;4.68;66.93
8699;BME280;4386;51.236;6.742;2023-01-25T00:10:13;103238.03;;;4.69;66.84
8699;BME280;4386;51.236;6.742;2023-01-25T00:11:36;103229.25;;;4.70;66.90
8699;BME280;4386;51.236;6.742;2023-01-25T00:12:58;103233.59;;;4.71;66.73
8699;BME280;4386;51.236;6.742;2023-01-25T00:14:20;103230.09;;;4.72;66.85
8699;BME280;4386;51.236;6.742;2023-01-25T00:15:42;103230.09;;;4.72;66.55
8699;BME280;4386;51.236;6.742;2023-01-25T00:17:05;103223.97;;;4.72;66.84
8699;BME280;4386;51.236;6.742;2023-01-25T00:18:27;103233.59;;;4.73;66.72
8699;BME280;4386;51.236;6.742;2023-01-25T00:19:49;103230.09;;;4.72;66.76
8699;BME280;4386;51.236;6.742;2023-01-25T00:21:12;103223.97;;;4.72;66.81
8699;BME280;4386;51.236;6.742;2023-01-25T00:22:34;103226.63;;;4.70;66.92
8699;BME280;4386;51.236;6.742;2023-01-25T00:24:02;103227.53;;;4.69;66.84
8699;BME280;4386;51.236;6.742;2023-01-25T00:25:23;103225.75;;;4.70;66.78
8699;BME280;4386;51.236;6.742;2023-01-25T00:26:46;103225.78;;;4.68;66.71
8699;BME280;4386;51.236;6.742;2023-01-25T00:28:09;103221.44;;;4.67;66.73
8699;BME280;4386;51.236;6.742;2023-01-25T00:29:30;103218.81;;;4.67;66.88
8699;BME280;4386;51.236;6.742;2023-01-25T00:30:57;103218.81;;;4.66;66.87
8699;BME280;4386;51.236;6.742;2023-01-25T00:32:36;103217.06;;;4.65;67.04
8699;BME280;4386;51.236;6.742;2023-01-25T00:34:18;103217.06;;;4.65;67.14
8699;BME280;4386;51.236;6.742;2023-01-25T00:35:50;103210.06;;;4.65;67.07
8699;BME280;4386;51.236;6.742;2023-01-25T00:37:23;103216.22;;;4.64;67.21
8699;BME280;4386;51.236;6.742;2023-01-25T00:38:46;103214.47;;;4.63;67.46
8699;BME280;4386;51.236;6.742;2023-01-25T00:40:11;103214.47;;;4.63;67.07
8699;BME280;4386;51.236;6.742;2023-01-25T00:41:34;103209.22;;;4.63;67.13
8699;BME280;4386;51.236;6.742;2023-01-25T00:42:56;103214.47;;;4.63;67.18
8699;BME280;4386;51.236;6.742;2023-01-25T00:44:21;103200.47;;;4.64;67.22
8699;BME280;4386;51.236;6.742;2023-01-25T00:45:43;103203.94;;;4.66;67.14
8699;BME280;4386;51.236;6.742;2023-01-25T00:47:08;103205.63;;;4.69;67.16
8699;BME280;4386;51.236;6.742;2023-01-25T00:48:30;103203.88;;;4.69;67.23
8699;BME280;4386;51.236;6.742;2023-01-25T00:49:53;103198.63;;;4.69;67.18
8699;BME280;4386;51.236;6.742;2023-01-25T00:51:14;103196.00;;;4.71;67.02
8699;BME280;4386;51.236;6.742;2023-01-25T00:52:38;103197.75;;;4.69;66.98
8699;BME280;4386;51.236;6.742;2023-01-25T00:54:01;103191.63;;;4.68;67.16
8699;BME280;4386;51.236;6.742;2023-01-25T00:55:23;103195.16;;;4.67;67.06
8699;BME280;4386;51.236;6.742;2023-01-25T00:56:47;103197.84;;;4.64;67.04
8699;BME280;4386;51.236;6.742;2023-01-25T00:58:09;103194.38;;;4.59;67.16
8699;BME280;4386;51.236;6.742;2023-01-25T00:59:31;103190.06;;;4.55;66.92
8699;BME280;4386;51.236;6.742;2023-01-25T01:00:54;103193.63;;;4.51;67.14
8699;BME280;4386;51.236;6.742;2023-01-25T01:02:17;103184.94;;;4.46;67.09
8699;BME280;4386;51.236;6.742;2023-01-25T01:03:39;103193.69;;;4.45;67.38
8699;BME280;4386;51.236;6.742;2023-01-25T01:05:01;103190.19;;;4.46;67.43
8699;BME280;4386;51.236;6.742;2023-01-25T01:06:24;103200.69;;;4.46;67.56
8699;BME280;4386;51.236;6.742;2023-01-25T01:07:47;103196.28;;;4.48;67.43
8699;BME280;4386;51.236;6.742;2023-01-25T01:09:13;103193.63;;;4.51;67.50
8699;BME280;4386;51.236;6.742;2023-01-25T01:10:36;103193.59;;;4.53;67.47
8699;BME280;4386;51.236;6.742;2023-01-25T01:11:58;103187.47;;;4.54;67.69
8699;BME280;4386;51.236;6.742;2023-01-25T01:13:21;103186.56;;;4.56;67.63
8699;BME280;4386;51.236;6.742;2023-01-25T01:14:42;103190.00;;;4.58;67.51
8699;BME280;4386;51.236;6.742;2023-01-25T01:16:06;103184.75;;;4.60;67.61
8699;BME280;4386;51.236;6.742;2023-01-25T01:17:28;103186.47;;;4.62;67.56
8699;BME280;4386;51.236;6.742;2023-01-25T01:18:52;103186.47;;;4.62;67.48
8699;BME280;4386;51.236;6.742;2023-01-25T01:20:14;103187.34;;;4.63;67.47
8699;BME280;4386;51.236;6.742;2023-01-25T01:21:37;103184.72;;;4.63;67.41
8699;BME280;4386;51.236;6.742;2023-01-25T01:22:59;103188.22;;;4.62;67.42
8699;BME280;4386;51.236;6.742;2023-01-25T01:24:22;103191.75;;;4.61;67.47
8699;BME280;4386;51.236;6.742;2023-01-25T01:25:46;103192.59;;;4.61;67.52
8699;BME280;4386;51.236;6.742;2023-01-25T01:27:09;103195.22;;;4.61;67.66
8699;BME280;4386;51.236;6.742;2023-01-25T01:28:32;103195.22;;;4.61;67.76
8699;BME280;4386;51.236;6.742;2023-01-25T01:29:54;103196.09;;;4.62;67.74
8699;BME280;4386;51.236;6.742;2023-01-25T01:31:19;103201.34;;;4.62;67.77
8699;BME280;4386;51.236;6.742;2023-01-25T01:32:41;103192.59;;;4.61;67.85
8699;BME280;4386;51.236;6.742;2023-01-25T01:34:04;103197.84;;;4.61;67.84
8699;BME280;4386;51.236;6.742;2023-01-25T01:35:27;103196.09;;;4.63;68.00
8699;BME280;4386;51.236;6.742;2023-01-25T01:36:50;103197.81;;;4.66;67.78
8699;BME280;4386;51.236;6.742;2023-01-25T01:38:12;103192.56;;;4.66;67.81
8699;BME280;4386;51.236;6.742;2023-01-25T01:39:34;103195.19;;;4.66;67.68
8699;BME280;4386;51.236;6.742;2023-01-25T01:40:58;103198.69;;;4.66;67.43
8699;BME280;4386;51.236;6.742;2023-01-25T01:42:19;103194.25;;;4.68;67.90
8699;BME280;4386;51.236;6.742;2023-01-25T01:43:42;103193.41;;;4.66;67.88
8699;BME280;4386;51.236;6.742;2023-01-25T01:47:00;103199.56;;;4.65;67.97
8699;BME280;4386;51.236;6.742;2023-01-25T01:48:33;103189.97;;;4.64;67.94
8699;BME280;4386;51.236;6.742;2023-01-25T01:49:58;103189.03;;;4.67;67.90
8699;BME280;4386;51.236;6.742;2023-01-25T01:51:27;103187.28;;;4.67;67.86
8699;BME280;4386;51.236;6.742;2023-01-25T01:52:52;103189.00;;;4.68;67.68
8699;BME280;4386;51.236;6.742;2023-01-25T01:54:18;103189.03;;;4.67;67.80
8699;BME280;4386;51.236;6.742;2023-01-25T01:55:44;103183.84;;;4.62;67.75
8699;BME280;4386;51.236;6.742;2023-01-25T01:57:09;103184.81;;;4.57;67.76
8699;BME280;4386;51.236;6.742;2023-01-25T01:58:33;103187.53;;;4.49;67.69
8699;BME280;4386;51.236;6.742;2023-01-25T01:59:59;103184.09;;;4.43;68.03
8699;BME280;4386;51.236;6.742;2023-01-25T02:01:24;103188.53;;;4.39;67.77
8699;BME280;4386;51.236;6.742;2023-01-25T02:02:48;103179.84;;;4.34;67.86
8699;BME280;4386;51.236;6.742;2023-01-25T02:04:12;103181.59;;;4.32;67.89
8699;BME280;4386;51.236;6.742;2023-01-25T02:05:39;103178.16;;;4.32;68.09
8699;BME280;4386;51.236;6.742;2023-01-25T02:07:07;103169.34;;;4.34;68.11
8699;BME280;4386;51.236;6.742;2023-01-25T02:08:33;103174.56;;;4.37;68.45
8699;BME280;4386;51.236;6.742;2023-01-25T02:09:57;103172.78;;;4.39;68.43
8699;BME280;4386;51.236;6.742;2023-01-25T02:11:20;103174.53;;;4.40;68.33
8699;BME280;4386;51.236;6.742;2023-01-25T02:12:44;103178.84;;;4.43;68.52
8699;BME280;4386;51.236;6.742;2023-01-25T02:14:07;103179.72;;;4.43;68.48
8699;BME280;4386;51.236;6.742;2023-01-25T02:15:35;103174.47;;;4.43;68.47
8699;BME280;4386;51.236;6.742;2023-01-25T02:16:58;103178.84;;;4.44;68.44
8699;BME280;4386;51.236;6.742;2023-01-25T02:18:22;103176.19;;;4.46;68.66
8699;BME280;4386;51.236;6.742;2023-01-25T02:19:51;103173.56;;;4.46;68.65
8699;BME280;4386;51.236;6.742;2023-01-25T02:21:14;103163.06;;;4.47;68.70
8699;BME280;4386;51.236;6.742;2023-01-25T02:22:41;103172.66;;;4.48;68.87
8699;BME280;4386;51.236;6.742;2023-01-25T02:24:10;103170.91;;;4.49;68.84
8699;BME280;4386;51.236;6.742;2023-01-25T02:25:35;103170.03;;;4.48;68.84
8699;BME280;4386;51.236;6.742;2023-01-25T02:26:58;103172.66;;;4.48;68.76
8699;BME280;4386;51.236;6.742;2023-01-25T02:28:23;103171.81;;;4.48;68.87
8699;BME280;4386;51.236;6.742;2023-01-25T02:29:48;103171.81;;;4.48;68.86
8699;BME280;4386;51.236;6.742;2023-01-25T02:31:12;103169.19;;;4.48;68.84
8699;BME280;4386;51.236;6.742;2023-01-25T02:32:35;103174.38;;;4.49;68.81
8699;BME280;4386;51.236;6.742;2023-01-25T02:33:58;103170.88;;;4.50;68.69
8699;BME280;4386;51.236;6.742;2023-01-25T02:35:23;103170.00;;;4.51;68.79
8699;BME280;4386;51.236;6.742;2023-01-25T02:36:46;103172.63;;;4.51;68.62
8699;BME280;4386;51.236;6.742;2023-01-25T02:38:11;103170.00;;;4.51;68.81
8699;BME280;4386;51.236;6.742;2023-01-25T02:39:33;103171.75;;;4.51;68.77
8699;BME280;4386;51.236;6.742;2023-01-25T02:41:01;103163.84;;;4.52;69.10
8699;BME280;4386;51.236;6.742;2023-01-25T02:42:23;103167.34;;;4.54;68.91
8699;BME280;4386;51.236;6.742;2023-01-25T02:43:46;103165.59;;;4.53;68.67
8699;BME280;4386;51.236;6.742;2023-01-25T02:45:11;103164.72;;;4.54;68.74
8699;BME280;4386;51.236;6.742;2023-01-25T02:46:36;103165.59;;;4.53;68.80
8699;BME280;4386;51.236;6.742;2023-01-25T02:47:59;103164.75;;;4.51;68.68
8699;BME280;4386;51.236;6.742;2023-01-25T02:49:22;103156.00;;;4.49;68.71
8699;BME280;4386;51.236;6.742;2023-01-25T02:50:45;103155.19;;;4.47;68.55
8699;BME280;4386;51.236;6.742;2023-01-25T02:52:06;103163.94;;;4.46;68.81
8699;BME280;4386;51.236;6.742;2023-01-25T02:53:29;103160.44;;;4.47;68.81
8699;BME280;4386;51.236;6.742;2023-01-25T02:54:50;103156.94;;;4.47;68.89
8699;BME280;4386;51.236;6.742;2023-01-25T02:56:15;103160.41;;;4.49;68.82
8699;BME280;4386;51.236;6.742;2023-01-25T02:57:38;103162.16;;;4.48;68.90
8699;BME280;4386;51.236;6.742;2023-01-25T02:59:00;103158.63;;;4.49;69.18
8699;BME280;4386;51.236;6.742;2023-01-25T03:00:25;103157.78;;;4.49;68.81
8699;BME280;4386;51.236;6.742;2023-01-25T03:01:48;103163.03;;;4.49;69.05
8699;BME280;4386;51.236;6.742;2023-01-25T03:03:11;103169.16;;;4.49;68.89
8699;BME280;4386;51.236;6.742;2023-01-25T03:04:32;103165.63;;;4.50;68.96
8699;BME280;4386;51.236;6.742;2023-01-25T03:05:55;103159.50;;;4.50;68.92
8699;BME280;4386;51.236;6.742;2023-01-25T03:07:16;103158.63;;;4.49;68.93
8699;BME280;4386;51.236;6.742;2023-01-25T03:08:39;103159.50;;;4.50;69.15
8699;BME280;4386;51.236;6.742;2023-01-25T03:10:01;103155.13;;;4.50;68.93
8699;BME280;4386;51.236;6.742;2023-01-25T03:11:24;103163.00;;;4.50;69.15
8699;BME280;4386;51.236;6.742;2023-01-25T03:12:47;103161.25;;;4.51;69.06
8699;BME280;4386;51.236;6.742;2023-01-25T03:14:08;103164.72;;;4.53;69.13
8699;BME280;4386;51.236;6.742;2023-01-25T03:15:31;103156.84;;;4.54;69.28
8699;BME280;4386;51.236;6.742;2023-01-25T03:16:52;103161.19;;;4.55;69.09
8699;BME280;4386;51.236;6.742;2023-01-25T03:18:15;103161.19;;;4.55;69.10
8699;BME280;4386;51.236;6.742;2023-01-25T03:19:37;103158.56;;;4.55;69.32
8699;BME280;4386;51.236;6.742;2023-01-25T03:21:07;103160.34;;;4.53;69.05
8699;BME280;4386;51.236;6.742;2023-01-25T03:22:30;103158.63;;;4.49;69.01
8699;BME280;4386;51.236;6.742;2023-01-25T03:23:57;103157.81;;;4.46;69.10
8699;BME280;4386;51.236;6.742;2023-01-25T03:25:20;103158.69;;;4.46;69.30
8699;BME280;4386;51.236;6.742;2023-01-25T03:26:44;103161.31;;;4.46;69.39
8699;BME280;4386;51.236;6.742;2023-01-25T03:28:23;103154.31;;;4.45;69.60
8699;BME280;4386;51.236;6.742;2023-01-25T03:29:46;103151.69;;;4.47;69.36
8699;BME280;4386;51.236;6.742;2023-01-25T03:31:10;103143.78;;;4.48;69.45
8699;BME280;4386;51.236;6.742;2023-01-25T03:32:35;103149.03;;;4.48;69.58
8699;BME280;4386;51.236;6.742;2023-01-25T03:33:57;103153.38;;;4.49;69.46
8699;BME280;4386;51.236;6.742;2023-01-25T03:35:20;103150.75;;;4.51;69.41
8699;BME280;4386;51.236;6.742;2023-01-25T03:36:42;103146.38;;;4.51;69.41
8699;BME280;4386;51.236;6.742;2023-01-25T03:38:04;103153.38;;;4.49;69.42
8699;BME280;4386;51.236;6.742;2023-01-25T03:39:26;103149.94;;;4.47;69.43
8699;BME280;4386;51.236;6.742;2023-01-25T03:40:50;103146.44;;;4.45;69.38
8699;BME280;4386;51.236;6.742;2023-01-25T03:42:14;103143.81;;;4.45;69.61
8699;BME280;4386;51.236;6.742;2023-01-25T03:43:37;103142.94;;;4.46;69.48
8699;BME280;4386;51.236;6.742;2023-01-25T03:44:58;103142.06;;;4.46;69.62
8699;BME280;4386;51.236;6.742;2023-01-25T03:46:21;103140.34;;;4.45;69.53
8699;BME280;4386;51.236;6.742;2023-01-25T03:47:42;103149.06;;;4.45;69.58
8699;BME280;4386;51.236;6.742;2023-01-25T03:49:05;103143.81;;;4.47;69.52
8699;BME280;4386;51.236;6.742;2023-01-25T03:50:26;103139.44;;;4.47;69.56
8699;BME280;4386;51.236;6.742;2023-01-25T03:51:49;103146.41;;;4.48;69.59
8699;BME280;4386;51.236;6.742;2023-01-25T03:53:11;103134.19;;;4.47;69.55
8699;BME280;4386;51.236;6.742;2023-01-25T03:54:47;103131.59;;;4.44;69.31
8699;BME280;4386;51.236;6.742;2023-01-25T03:56:10;103135.16;;;4.40;69.53
8699;BME280;4386;51.236;6.742;2023-01-25T03:57:39;103131.69;;;4.37;69.36
8699;BME280;4386;51.236;6.742;2023-01-25T03:59:01;103134.31;;;4.35;69.85
8699;BME280;4386;51.236;6.742;2023-01-25T04:00:23;103123.81;;;4.35;69.76
8699;BME280;4386;51.236;6.742;2023-01-25T04:01:45;103129.06;;;4.35;69.70
8699;BME280;4386;51.236;6.742;2023-01-25T04:03:08;103128.22;;;4.35;69.75
8699;BME280;4386;51.236;6.742;2023-01-25T04:04:30;103123.81;;;4.35;69.83
8699;BME280;4386;51.236;6.742;2023-01-25T04:05:53;103122.06;;;4.37;69.71
8699;BME280;4386;51.236;6.742;2023-01-25T04:07:16;103122.91;;;4.39;69.91
8699;BME280;4386;51.236;6.742;2023-01-25T04:08:37;103125.47;;;4.42;69.72
8699;BME280;4386;51.236;6.742;2023-01-25T04:10:00;103116.78;;;4.40;69.70
8699;BME280;4386;51.236;6.742;2023-01-25T04:11:23;103114.09;;;4.42;69.75
8699;BME280;4386;51.236;6.742;2023-01-25T04:12:46;103121.09;;;4.43;69.89
8699;BME280;4386;51.236;6.742;2023-01-25T04:14:09;103117.56;;;4.45;69.92
8699;BME280;4386;51.236;6.742;2023-01-25T04:15:31;103117.56;;;4.47;69.80
8699;BME280;4386;51.236;6.742;2023-01-25T04:16:54;103113.19;;;4.47;69.61
8699;BME280;4386;51.236;6.742;2023-01-25T04:18:16;103122.75;;;4.50;69.42
8699;BME280;4386;51.236;6.742;2023-01-25T04:19:39;103111.38;;;4.49;69.57
8699;BME280;4386;51.236;6.742;2023-01-25T04:21:00;103100.00;;;4.50;69.57
8699;BME280;4386;51.236;6.742;2023-01-25T04:22:23;103100.88;;;4.49;69.57
8699;BME280;4386;51.236;6.742;2023-01-25T04:23:45;103094.81;;;4.47;69.79
8699;BME280;4386;51.236;6.742;2023-01-25T04:25:08;103090.44;;;4.46;69.70
8699;BME280;4386;51.236;6.742;2023-01-25T04:26:31;103096.56;;;4.47;69.62
8699;BME280;4386;51.236;6.742;2023-01-25T04:27:55;103096.56;;;4.47;69.75
8699;BME280;4386;51.236;6.742;2023-01-25T04:29:17;103089.56;;;4.46;69.77
8699;BME280;4386;51.236;6.742;2023-01-25T04:30:46;103090.44;;;4.46;69.66
8699;BME280;4386;51.236;6.742;2023-01-25T04:32:10;103095.69;;;4.46;69.71
8699;BME280;4386;51.236;6.742;2023-01-25T04:33:34;103086.06;;;4.45;70.04
8699;BME280;4386;51.236;6.742;2023-01-25T04:34:56;103079.06;;;4.46;69.81
8699;BME280;4386;51.236;6.742;2023-01-25T04:36:20;103090.44;;;4.46;69.77
8699;BME280;4386;51.236;6.742;2023-01-25T04:37:43;103091.31;;;4.45;70.00
8699;BME280;4386;51.236;6.742;2023-01-25T04:39:04;103084.31;;;4.47;69.87
8699;BME280;4386;51.236;6.742;2023-01-25T04:40:27;103083.38;;;4.48;69.68
8699;BME280;4386;51.236;6.742;2023-01-25T04:41:49;103086.94;;;4.47;69.88
8699;BME280;4386;51.236;6.742;2023-01-25T04:43:13;103088.63;;;4.48;70.11
8699;BME280;4386;51.236;6.742;2023-01-25T04:44:36;103085.13;;;4.49;69.93
8699;BME280;4386;51.236;6.742;2023-01-25T04:46:00;103083.44;;;4.47;69.56
8699;BME280;4386;51.236;6.742;2023-01-25T04:47:23;103085.22;;;4.43;69.66
8699;BME280;4386;51.236;6.742;2023-01-25T04:48:44;103086.16;;;4.39;69.60
8699;BME280;4386;51.236;6.742;2023-01-25T04:50:08;103082.75;;;4.34;69.75
8699;BME280;4386;51.236;6.742;2023-01-25T04:51:30;103074.88;;;4.34;69.72
8699;BME280;4386;51.236;6.742;2023-01-25T04:52:53;103076.63;;;4.32;69.72
8699;BME280;4386;51.236;6.742;2023-01-25T04:54:14;103076.66;;;4.31;69.82
8699;BME280;4386;51.236;6.742;2023-01-25T04:55:37;103077.53;;;4.30;69.93
8699;BME280;4386;51.236;6.742;2023-01-25T04:56:59;103073.16;;;4.30;69.87
8699;BME280;4386;51.236;6.742;2023-01-25T04:58:24;103063.56;;;4.29;69.94
8699;BME280;4386;51.236;6.742;2023-01-25T04:59:45;103071.41;;;4.31;69.92
8699;BME280;4386;51.236;6.742;2023-01-25T05:01:08;103070.53;;;4.30;70.07
8699;BME280;4386;51.236;6.742;2023-01-25T05:02:30;103069.66;;;4.31;70.08
8699;BME280;4386;51.236;6.742;2023-01-25T05:03:53;103067.91;;;4.30;69.94
8699;BME280;4386;51.236;6.742;2023-01-25T05:05:16;103068.81;;;4.29;70.14
8699;BME280;4386;51.236;6.742;2023-01-25T05:06:38;103064.47;;;4.28;69.97
8699;BME280;4386;51.236;6.742;2023-01-25T05:08:01;103074.97;;;4.28;70.01
8699;BME280;4386;51.236;6.742;2023-01-25T05:09:22;103065.34;;;4.26;70.27
8699;BME280;4386;51.236;6.742;2023-01-25T05:10:45;103062.75;;;4.24;69.93
8699;BME280;4386;51.236;6.742;2023-01-25T05:12:06;103062.81;;;4.21;70.04
8699;BME280;4386;51.236;6.742;2023-01-25T05:13:33;103063.72;;;4.18;70.12
8699;BME280;4386;51.236;6.742;2023-01-25T05:14:55;103063.72;;;4.17;69.99
8699;BME280;4386;51.236;6.742;2023-01-25T05:16:17;103054.13;;;4.16;69.95
8699;BME280;4386;51.236;6.742;2023-01-25T05:17:40;103058.53;;;4.15;70.10
8699;BME280;4386;51.236;6.742;2023-01-25T05:19:01;103057.66;;;4.15;70.18
8699;BME280;4386;51.236;6.742;2023-01-25T05:20:24;103062.00;;;4.16;70.23
8699;BME280;4386;51.236;6.742;2023-01-25T05:21:45;103064.63;;;4.16;70.26
8699;BME280;4386;51.236;6.742;2023-01-25T05:23:20;103068.09;;;4.18;70.51
8699;BME280;4386;51.236;6.742;2023-01-25T05:24:42;103062.81;;;4.21;70.39
8699;BME280;4386;51.236;6.742;2023-01-25T05:26:09;103059.31;;;4.22;70.50
8699;BME280;4386;51.236;6.742;2023-01-25T05:27:49;103066.28;;;4.23;70.07
8699;BME280;4386;51.236;6.742;2023-01-25T05:29:12;103058.44;;;4.22;70.30
8699;BME280;4386;51.236;6.742;2023-01-25T05:30:35;103061.94;;;4.22;70.26
8699;BME280;4386;51.236;6.742;2023-01-25T05:31:59;103063.69;;;4.20;70.28
8699;BME280;4386;51.236;6.742;2023-01-25T05:33:22;103055.81;;;4.22;70.51
8699;BME280;4386;51.236;6.742;2023-01-25T05:34:45;103058.44;;;4.22;70.45
8699;BME280;4386;51.236;6.742;2023-01-25T05:36:08;103061.94;;;4.22;70.38
8699;BME280;4386;51.236;6.742;2023-01-25T05:37:30;103061.06;;;4.22;70.53
8699;BME280;4386;51.236;6.742;2023-01-25T05:38:52;103054.06;;;4.22;70.54
8699;BME280;4386;51.236;6.742;2023-01-25T05:40:14;103048.81;;;4.22;70.53
8699;BME280;4386;51.236;6.742;2023-01-25T05:41:36;103050.53;;;4.23;70.56
8699;BME280;4386;51.236;6.742;2023-01-25T05:42:58;103053.16;;;4.23;70.55
8699;BME280;4386;51.236;6.742;2023-01-25T05:44:22;103050.53;;;4.23;70.53
8699;BME280;4386;51.236;6.742;2023-01-25T05:45:51;103049.66;;;4.24;70.76
8699;BME280;4386;51.236;6.742;2023-01-25T05:47:15;103055.72;;;4.26;70.77
8699;BME280;4386;51.236;6.742;2023-01-25T05:48:38;103049.59;;;4.26;70.78
8699;BME280;4386;51.236;6.742;2023-01-25T05:50:00;103056.63;;;4.25;70.87
8699;BME280;4386;51.236;6.742;2023-01-25T05:51:23;103060.13;;;4.24;70.83
8699;BME280;4386;51.236;6.742;2023-01-25T05:52:44;103059.31;;;4.22;70.91
8699;BME280;4386;51.236;6.742;2023-01-25T05:54:10;103053.16;;;4.23;71.02
8699;BME280;4386;51.236;6.742;2023-01-25T05:55:34;103054.03;;;4.24;70.73
8699;BME280;4386;51.236;6.742;2023-01-25T05:56:55;103055.78;;;4.23;71.09
8699;BME280;4386;51.236;6.742;2023-01-25T05:58:18;103052.28;;;4.22;71.04
8699;BME280;4386;51.236;6.742;2023-01-25T05:59:41;103050.53;;;4.23;70.82
8699;BME280;4386;51.236;6.742;2023-01-25T06:01:05;103053.16;;;4.23;71.15
8699;BME280;4386;51.236;6.742;2023-01-25T06:02:28;103051.41;;;4.24;71.04
8699;BME280;4386;51.236;6.742;2023-01-25T06:03:52;103048.75;;;4.25;71.01
8699;BME280;4386;51.236;6.742;2023-01-25T06:05:14;103050.47;;;4.26;71.07
8699;BME280;4386;51.236;6.742;2023-01-25T06:06:37;103051.34;;;4.28;71.05
8699;BME280;4386;51.236;6.742;2023-01-25T06:07:59;103055.72;;;4.28;71.05
8699;BME280;4386;51.236;6.742;2023-01-25T06:09:21;103045.22;;;4.28;71.00
8699;BME280;4386;51.236;6.742;2023-01-25T06:10:44;103047.84;;;4.28;71.23
8699;BME280;4386;51.236;6.742;2023-01-25T06:12:05;103046.97;;;4.27;71.04
8699;BME280;4386;51.236;6.742;2023-01-25T06:13:28;103046.97;;;4.27;71.22
8699;BME280;4386;51.236;6.742;2023-01-25T06:14:51;103045.22;;;4.28;71.26
8699;BME280;4386;51.236;6.742;2023-01-25T06:16:14;103042.59;;;4.26;71.07
8699;BME280;4386;51.236;6.742;2023-01-25T06:17:37;103034.72;;;4.26;71.32
8699;BME280;4386;51.236;6.742;2023-01-25T06:19:00;103038.22;;;4.28;71.36
8699;BME280;4386;51.236;6.742;2023-01-25T06:20:22;103035.59;;;4.28;71.21
8699;BME280;4386;51.236;6.742;2023-01-25T06:21:45;103043.47;;;4.28;71.28
8699;BME280;4386;51.236;6.742;2023-01-25T06:23:06;103036.47;;;4.27;71.30
8699;BME280;4386;51.236;6.742;2023-01-25T06:24:29;103037.34;;;4.28;71.46
8699;BME280;4386;51.236;6.742;2023-01-25T06:25:52;103046.09;;;4.27;71.33
8699;BME280;4386;51.236;6.742;2023-01-25T06:27:15;103043.50;;;4.25;71.59
8699;BME280;4386;51.236;6.742;2023-01-25T06:28:38;103043.56;;;4.22;71.48
8699;BME280;4386;51.236;6.742;2023-01-25T06:30:02;103042.75;;;4.18;71.45
8699;BME280;4386;51.236;6.742;2023-01-25T06:31:26;103041.00;;;4.16;71.49
8699;BME280;4386;51.236;6.742;2023-01-25T06:32:50;103038.41;;;4.14;71.41
8699;BME280;4386;51.236;6.742;2023-01-25T06:34:15;103041.97;;;4.12;71.57
8699;BME280;4386;51.236;6.742;2023-01-25T06:35:38;103035.84;;;4.10;71.45
8699;BME280;4386;51.236;6.742;2023-01-25T06:37:01;103042.88;;;4.08;71.62
8699;BME280;4386;51.236;6.742;2023-01-25T06:38:24;103037.63;;;4.08;71.52
8699;BME280;4386;51.236;6.742;2023-01-25T06:39:45;103042.88;;;4.08;71.56
8699;BME280;4386;51.236;6.742;2023-01-25T06:41:10;103042.91;;;4.05;71.89
8699;BME280;4386;51.236;6.742;2023-01-25T06:42:32;103038.56;;;4.04;71.97
8699;BME280;4386;51.236;6.742;2023-01-25T06:43:55;103039.44;;;4.04;71.76
8699;BME280;4386;51.236;6.742;2023-01-25T06:45:19;103038.59;;;4.01;71.99
8699;BME280;4386;51.236;6.742;2023-01-25T06:46:42;103035.13;;;3.99;72.08
8699;BME280;4386;51.236;6.742;2023-01-25T06:48:04;103042.16;;;3.97;71.80
8699;BME280;4386;51.236;6.742;2023-01-25T06:49:27;103036.91;;;3.97;71.85
8699;BME280;4386;51.236;6.742;2023-01-25T06:50:52;103043.06;;;3.96;71.61
8699;BME280;4386;51.236;6.742;2023-01-25T06:52:14;103033.44;;;3.95;71.85
8699;BME280;4386;51.236;6.742;2023-01-25T06:53:38;103041.31;;;3.95;71.96
8699;BME280;4386;51.236;6.742;2023-01-25T06:55:01;103047.44;;;3.94;71.93
8699;BME280;4386;51.236;6.742;2023-01-25T06:56:24;103044.81;;;3.94;71.67
8699;BME280;4386;51.236;6.742;2023-01-25T06:57:48;103045.69;;;3.93;72.00
8699;BME280;4386;51.236;6.742;2023-01-25T06:59:11;103043.06;;;3.93;72.09
8699;BME280;4386;51.236;6.742;2023-01-25T07:00:34;103043.09;;;3.90;71.92
8699;BME280;4386;51.236;6.742;2023-01-25T07:01:56;103042.28;;;3.89;72.25
8699;BME280;4386;51.236;6.742;2023-01-25T07:03:19;103040.53;;;3.87;72.23
8699;BME280;4386;51.236;6.742;2023-01-25T07:04:41;103040.53;;;3.87;72.30
8699;BME280;4386;51.236;6.742;2023-01-25T07:06:06;103042.31;;;3.85;72.22
8699;BME280;4386;51.236;6.742;2023-01-25T07:07:28;103040.56;;;3.84;72.40
8699;BME280;4386;51.236;6.742;2023-01-25T07:08:51;103042.34;;;3.82;72.28
8699;BME280;4386;51.236;6.742;2023-01-25T07:10:14;103044.09;;;3.83;72.49
8699;BME280;4386;51.236;6.742;2023-01-25T07:11:36;103040.56;;;3.84;72.52
8699;BME280;4386;51.236;6.742;2023-01-25T07:12:59;103045.81;;;3.85;72.31
8699;BME280;4386;51.236;6.742;2023-01-25T07:14:25;103040.56;;;3.84;72.48
8699;BME280;4386;51.236;6.742;2023-01-25T07:15:54;103043.19;;;3.84;72.38
8699;BME280;4386;51.236;6.742;2023-01-25T07:17:17;103048.44;;;3.85;72.80
8699;BME280;4386;51.236;6.742;2023-01-25T07:18:40;103037.06;;;3.85;72.26
8699;BME280;4386;51.236;6.742;2023-01-25T07:20:02;103037.94;;;3.84;72.58
8699;BME280;4386;51.236;6.742;2023-01-25T07:21:25;103041.44;;;3.84;72.55
8699;BME280;4386;51.236;6.742;2023-01-25T07:22:48;103041.44;;;3.84;72.61
8699;BME280;4386;51.236;6.742;2023-01-25T07:24:12;103039.66;;;3.86;72.72
8699;BME280;4386;51.236;6.742;2023-01-25T07:25:36;103044.06;;;3.86;72.48
8699;BME280;4386;51.236;6.742;2023-01-25T07:26:58;103041.44;;;3.86;72.69
8699;BME280;4386;51.236;6.742;2023-01-25T07:28:21;103033.56;;;3.86;72.68
8699;BME280;4386;51.236;6.742;2023-01-25T07:29:43;103037.94;;;3.85;72.43
8699;BME280;4386;51.236;6.742;2023-01-25T07:31:07;103035.31;;;3.84;72.72
8699;BME280;4386;51.236;6.742;2023-01-25T07:32:30;103035.31;;;3.85;73.01
8699;BME280;4386;51.236;6.742;2023-01-25T07:33:56;103036.19;;;3.84;73.23
8699;BME280;4386;51.236;6.742;2023-01-25T07:35:20;103039.66;;;3.86;72.93